Portada
METAR-TAF:

METAR-TAF

Aeroports :

Munda, New Georgia, Illes Salomó

latitud: 8-19-41S, longitud: 157-15-47E, altitud: 3 m

Observació

L'informe es va fer fa 5 hores i 6 minuts, a les 05:00 UTC
Vent calma
Temperatura 31°C
Humitat 66%
Pressió 1005 hPa
Visibilitat 10 km o més
Escasses núvols a una alçada de 1800 ft
Escasses núvols a una alçada de 2000 ft, Cumulonimbus.
Núvols disperses a una alçada de 30000 ft

METAR: AGGM 260500Z 00000KT 9999 FEW018 FEW020CB SCT300 31/24 Q1005

Hora: 21:06 (10:06 UTC)

Pronòstic

L'informe es va fer fa 5 hores i 16 minuts, a les 04:50 UTC
Pronòstic vàlid del 26 a les 06 UTC al 27 a les 07 UTC
Vent 3 kt amb direcció variable
Visibilitat: 1008 m
Núvols disperses a una alçada de 1700 ft
Núvols disperses a una alçada de 2800 ft
(lleu) ruixats, plugim

TAF: AGGM 260450Z 2606/2707 VRB03KT 9999 -SHDZ SCT017 SCT028 Q 1006 1008 1009 1008

Observacions i pronòstics meteorològics de més de 4000 aeroports (METAR i TAF).

Les estacions disponibles són els punts grocs i vermells al mapa.

Posi el ratolí al punt desitjat per veure el nom de l'estació.

Feu clic per veure les observacions i els pronòstics meteorològics.

Per canviar el mapa: feu clic els botons verds amb una creu de color negre per apropar; al botó verd amb un guió per allunyar la imatge; o en les fletxes verdes per a mapes adjacents.


METAR-TAF: